Flight Track Log - Related Links

Times and Time Zones

All times are in EDT time to prevent confusion due to time zone crossing. See the CTL16 flight status page for this flight to view local times or setup timezone preferences in your user account.

Time Position Orientation Groundspeed Altitude Reporting Facility
EDT Latitude Longitude Course Direction KTS MPH feet Rate Location/Type
Fri 08:30:42 PM 39.3833 -84.4667 360° North 121 139 2,300  Level Cincinnati TRACON
Fri 08:31:00 PM 39.4000 -84.4667 360° North 120 138 2,600 923 Climbing Cincinnati TRACON
Fri 08:32:00 PM 39.4139 -84.4314 63° Northeast 122 140 3,500 720 Climbing Indianapolis Center
Fri 08:33:05 PM 39.4400 -84.3933 48° Northeast 126 145 4,100 619 Climbing Indianapolis Center
Fri 08:34:06 PM 39.4678 -84.3539 48° Northeast 138 159 4,800 732 Climbing Indianapolis Center
Fri 08:35:08 PM 39.4947 -84.3153 48° Northeast 141 162 5,600 780 Climbing Indianapolis Center
Fri 08:36:09 PM 39.5203 -84.2836 44° Northeast 128 147 6,400 689 Climbing Indianapolis Center
Fri 08:37:10 PM 39.5458 -84.2517 44° Northeast 124 143 7,000 295 Climbing Indianapolis Center
Fri 08:38:11 PM 39.5769 -84.2044 49° Northeast 170 196 7,000 48 Level Indianapolis Center
Fri 08:39:14 PM 39.6069 -84.1650 45° Northeast 159 183 7,100  Climbing Indianapolis Center
Fri 08:40:19 PM 39.6467 -84.1161 43° Northeast 174 200 7,000 -48 Descending Indianapolis Center
Fri 08:41:20 PM 39.6797 -84.0689 48° Northeast 171 197 7,000  Level Indianapolis Center
Fri 08:42:14 PM 39.7119 -84.0297 43° Northeast 173 199 7,000  Level Indianapolis Center
Fri 08:43:19 PM 39.7447 -83.9864 45° Northeast 173 199 7,000  Level Indianapolis Center
Fri 08:44:21 PM 39.7817 -83.9300 50° Northeast 173 199 7,000  Level Indianapolis Center
Fri 08:45:17 PM 39.8131 -83.8878 46° Northeast 174 200 7,000  Level Indianapolis Center
Fri 08:46:18 PM 39.8458 -83.8431 46° Northeast 173 199 7,000  Level Indianapolis Center
Fri 08:47:12 PM 39.8800 -83.8039 41° Northeast 179 206 7,000  Level Indianapolis Center
Fri 08:48:27 PM 39.9267 -83.7547 39° Northeast 179 206 7,000  Level Indianapolis Center
Fri 08:49:26 PM 39.9722 -83.7203 30° Northeast 184 212 7,000  Level Indianapolis Center
Fri 08:50:20 PM 40.0044 -83.6808 43° Northeast 180 207 7,000  Level Indianapolis Center
Fri 08:51:21 PM 40.0433 -83.6394 39° Northeast 179 206 7,000 -52 Level Indianapolis Center
Fri 08:52:16 PM 40.0775 -83.6000 41° Northeast 179 206 6,900  Descending Indianapolis Center
Fri 08:52:32 PM 40.0850 -83.5908 43° Northeast 178 205 7,000  Climbing Indianapolis Center
Fri 08:53:16 PM 40.1164 -83.5558 40° Northeast 179 206 6,900  Descending Indianapolis Center
Fri 08:53:34 PM 40.1236 -83.5481 39° Northeast 178 205 7,000 98 Climbing Indianapolis Center
Fri 08:54:17 PM 40.1508 -83.5136 44° Northeast 176 203 7,000  Level Indianapolis Center
Fri 08:54:35 PM 40.1597 -83.5042 39° Northeast 177 204 7,000  Level Indianapolis Center
Fri 08:55:18 PM 40.1872 -83.4717 42° Northeast 174 200 7,000  Level Indianapolis Center
Fri 08:55:36 PM 40.1972 -83.4617 37° Northeast 176 203 7,000  Level Indianapolis Center
Fri 08:56:12 PM 40.2217 -83.4322 43° Northeast 173 199 7,000  Level Indianapolis Center
Fri 08:56:38 PM 40.2325 -83.4189 43° Northeast 174 200 7,000  Level Indianapolis Center
Fri 08:57:39 PM 40.2686 -83.3758 42° Northeast 173 199 7,000  Level Indianapolis Center
Fri 08:58:40 PM 40.3033 -83.3347 42° Northeast 168 193 7,000  Level Indianapolis Center
Fri 08:59:41 PM 40.3400 -83.2933 41° Northeast 170 196 7,000 -49 Level Indianapolis Center
Fri 09:00:43 PM 40.3750 -83.2522 42° Northeast 168 193 6,900 -49 Descending Indianapolis Center
Fri 09:01:44 PM 40.4092 -83.2108 43° Northeast 166 191 6,900 49 Level Indianapolis Center
Fri 09:02:45 PM 40.4447 -83.1686 42° Northeast 168 193 7,000 49 Climbing Indianapolis Center
Fri 09:03:46 PM 40.4811 -83.1294 39° Northeast 169 194 7,000  Level Indianapolis Center
Fri 09:04:47 PM 40.5175 -83.0856 43° Northeast 169 194 7,000 -49 Level Indianapolis Center
Fri 09:05:48 PM 40.5528 -83.0425 43° Northeast 170 196 6,900  Descending Indianapolis Center
Fri 09:06:50 PM 40.5867 -82.9972 45° Northeast 172 198 7,000  Climbing Indianapolis Center
Fri 09:07:51 PM 40.6272 -82.9444 45° Northeast 173 199 6,900  Descending Indianapolis Center
Fri 09:08:52 PM 40.6611 -82.9003 45° Northeast 172 198 7,000 49 Climbing Indianapolis Center
Fri 09:09:53 PM 40.6953 -82.8556 45° Northeast 171 197 7,000  Level Indianapolis Center
Fri 09:10:55 PM 40.7297 -82.8111 44° Northeast 171 197 7,000 -49 Level Indianapolis Center
Fri 09:11:56 PM 40.7617 -82.7628 49° Northeast 172 198 6,900 -197 Descending Indianapolis Center
Fri 09:12:57 PM 40.7975 -82.7144 46° Northeast 180 207 6,600 -295 Descending Indianapolis Center

Login

Don't have an account? Register now (free) for customized features, flight alerts, and more!